Quick Links (Output Below):   Max & Min Temps   /   Climate Reports   /   Zone Forecasts
River Forecasts   /   Forestry Forecasts   /   Aviation Forecasts   /   Radars   /   Features

Terminal Aerodrome Forecast (Fort Smith)

Pick a Site:
Arkadelphia | El Dorado | Fayetteville | Fort Smith | Harrison | Highfill | Hot Springs | Jonesboro
Little Rock | Monticello | Mountain Home | Pine Bluff | Texarkana
 Forecast 

KFSM 051125Z 0512/0612 06007KT P6SM BKN100 BKN250
     FM051600 23007KT P6SM VCSH BKN250
      TEMPO 0517/0521 3SM TSRA BKN050CB
     FM052100 19008KT P6SM VCSH BKN250 PROB30 0521/0603 3SM TSRA
      BKN050CB
     FM060300 14004KT P6SM VCSH BKN250 PROB30 0603/0609 3SM TSRA
      BKN050CB
     FM060900 06004KT P6SM SCT250=


 Latest METARs (Observations) 
How to Decode METARs
12Z KFSM 051153Z 06006KT 10SM SCT080 OVC090 24/21 A2993 RMK AO2 SLP129
         T02440211 10261 20239 53002
         
11Z KFSM 051053Z 07004KT 10SM BKN080 OVC090 24/22 A2991 RMK AO2 SLP124
         T02440217
         
10Z KFSM 050953Z AUTO 09004KT 10SM BKN090 24/22 A2992 RMK AO2 SLP126
         T02440217
         
09Z KFSM 050853Z AUTO 10005KT 10SM FEW090 SCT120 25/21 A2993 RMK AO2
         SLP127 T02500211 56007
         
08Z KFSM 050753Z AUTO 04007KT 10SM OVC110 26/22 A2993 RMK AO2 SLP130
         T02560217
         
07Z KFSM 050653Z AUTO 09006KT 10SM SCT110 26/22 A2992 RMK AO2 SLP126
         T02560217
         
06Z KFSM 050553Z AUTO 07007KT 10SM SCT110 26/21 A2995 RMK AO2 SLP135
         T02610211 10311 20261 403330228 50002
         
05Z KFSM 050453Z AUTO 08003KT 10SM OVC100 26/22 A2996 RMK AO2 SLP138
         T02610217
         
04Z KFSM 050353Z AUTO 05006KT 10SM BKN110 27/20 A2996 RMK AO2 SLP137
         T02720200
         
03Z KFSM 050253Z 09004KT 10SM BKN110 28/21 A2994 RMK AO2 SLP133
         T02780211 53012
         
***** Today's Observations (Above) *****


Back to Main Page
http://www.srh.noaa.gov/lzk/qfcst.php

USA.gov is the U.S. government's official web portal to all federal, state and local government web resources and services.